CPA448 VHHH-RCKH
Flight info
| Callsign | CPA448 |
|---|---|
| Flight time | 0h 56m |
| Altitude | 37000 |
| Route | DALOL V631 ENVAR M750 DADON G581 PORCH |
| Aircraft | A346/H-SDE2E3FGHIJ3J4J5M1RWXY/LB1D1 |
Departure
| Time | 2026-04-24 12:33 |
|---|---|
| Airport | Hong Kong International Airport (VHHH) |
Arrival
| Time | 2026-04-24 13:30 |
|---|---|
| Airport | Kaohsiung International Airport (RCKH) |
| Time | Latitude | Longitude | Altitude | Speed | Heading |
|---|---|---|---|---|---|
| 2026-04-24 11:52 | 22.31462 | 113.93001 | 40 ft | 0 kts | 161° |
| 2026-04-24 12:16 | 22.31464 | 113.93001 | 13 ft | 2 kts | 161° |
| 2026-04-24 12:16 | 22.31488 | 113.92992 | 39 ft | 4 kts | 161° |
| 2026-04-24 12:16 | 22.31510 | 113.92983 | 39 ft | 2 kts | 161° |
| 2026-04-24 12:16 | 22.31531 | 113.92979 | 38 ft | 4 kts | 187° |
| 2026-04-24 12:17 | 22.31546 | 113.92985 | 37 ft | 4 kts | 228° |
| 2026-04-24 12:17 | 22.31554 | 113.93004 | 36 ft | 4 kts | 251° |
| 2026-04-24 12:17 | 22.31563 | 113.93031 | 37 ft | 4 kts | 251° |
| 2026-04-24 12:17 | 22.31566 | 113.93039 | 39 ft | 0 kts | 251° |
| 2026-04-24 12:21 | 22.31563 | 113.93030 | 37 ft | 3 kts | 251° |
| 2026-04-24 12:21 | 22.31553 | 113.92999 | 36 ft | 6 kts | 251° |
| 2026-04-24 12:21 | 22.31535 | 113.92943 | 40 ft | 10 kts | 251° |
| 2026-04-24 12:22 | 22.31509 | 113.92863 | 40 ft | 13 kts | 250° |
| 2026-04-24 12:22 | 22.31490 | 113.92796 | 40 ft | 7 kts | 263° |
| 2026-04-24 12:22 | 22.31505 | 113.92729 | 40 ft | 11 kts | 293° |
| 2026-04-24 12:22 | 22.31542 | 113.92642 | 41 ft | 14 kts | 294° |
| 2026-04-24 12:23 | 22.31586 | 113.92537 | 41 ft | 14 kts | 296° |
| 2026-04-24 12:23 | 22.31617 | 113.92474 | 41 ft | 10 kts | 298° |
| 2026-04-24 12:23 | 22.31641 | 113.92392 | 41 ft | 13 kts | 271° |
| 2026-04-24 12:23 | 22.31623 | 113.92307 | 41 ft | 12 kts | 251° |
| 2026-04-24 12:24 | 22.31592 | 113.92209 | 41 ft | 15 kts | 251° |
| 2026-04-24 12:24 | 22.31561 | 113.92115 | 41 ft | 7 kts | 249° |
| 2026-04-24 12:24 | 22.31520 | 113.92072 | 41 ft | 10 kts | 195° |
| 2026-04-24 12:24 | 22.31440 | 113.92091 | 41 ft | 14 kts | 160° |
| 2026-04-24 12:25 | 22.31339 | 113.92128 | 41 ft | 17 kts | 161° |
| 2026-04-24 12:25 | 22.31216 | 113.92174 | 40 ft | 20 kts | 161° |
| 2026-04-24 12:25 | 22.31072 | 113.92227 | 40 ft | 23 kts | 161° |
| 2026-04-24 12:25 | 22.30932 | 113.92279 | 40 ft | 19 kts | 161° |
| 2026-04-24 12:26 | 22.30813 | 113.92323 | 40 ft | 11 kts | 160° |
| 2026-04-24 12:26 | 22.30734 | 113.92329 | 40 ft | 12 kts | 208° |
| 2026-04-24 12:26 | 22.30688 | 113.92252 | 40 ft | 13 kts | 248° |
| 2026-04-24 12:26 | 22.30654 | 113.92147 | 40 ft | 17 kts | 252° |
| 2026-04-24 12:27 | 22.30612 | 113.92015 | 40 ft | 20 kts | 250° |
| 2026-04-24 12:27 | 22.30563 | 113.91862 | 40 ft | 23 kts | 251° |
| 2026-04-24 12:27 | 22.30508 | 113.91692 | 40 ft | 25 kts | 250° |
| 2026-04-24 12:27 | 22.30447 | 113.91505 | 41 ft | 25 kts | 251° |
| 2026-04-24 12:28 | 22.30389 | 113.91323 | 41 ft | 23 kts | 251° |
| 2026-04-24 12:28 | 22.30334 | 113.91154 | 41 ft | 25 kts | 251° |
| 2026-04-24 12:28 | 22.30275 | 113.90968 | 41 ft | 27 kts | 251° |
| 2026-04-24 12:28 | 22.30210 | 113.90770 | 41 ft | 29 kts | 251° |
| 2026-04-24 12:29 | 22.30142 | 113.90557 | 40 ft | 30 kts | 251° |
| 2026-04-24 12:29 | 22.30072 | 113.90341 | 40 ft | 31 kts | 251° |
| 2026-04-24 12:29 | 22.30001 | 113.90118 | 40 ft | 28 kts | 250° |
| 2026-04-24 12:29 | 22.29937 | 113.89920 | 40 ft | 28 kts | 251° |
| 2026-04-24 12:30 | 22.29894 | 113.89787 | 40 ft | 10 kts | 250° |
| 2026-04-24 12:30 | 22.29837 | 113.89739 | 40 ft | 13 kts | 182° |
| 2026-04-24 12:30 | 22.29766 | 113.89757 | 40 ft | 8 kts | 161° |
| 2026-04-24 12:30 | 22.29758 | 113.89760 | 40 ft | 0 kts | 161° |
| 2026-04-24 12:31 | 22.29755 | 113.89762 | 40 ft | 2 kts | 161° |
| 2026-04-24 12:31 | 22.29728 | 113.89771 | 40 ft | 6 kts | 161° |
| 2026-04-24 12:31 | 22.29670 | 113.89794 | 38 ft | 9 kts | 157° |
| 2026-04-24 12:31 | 22.29640 | 113.89850 | 38 ft | 10 kts | 84° |
| 2026-04-24 12:32 | 22.29654 | 113.89906 | 38 ft | 0 kts | 71° |
| 2026-04-24 12:32 | 22.29668 | 113.89951 | 38 ft | 30 kts | 71° |
| 2026-04-24 12:32 | 22.29822 | 113.90423 | 39 ft | 101 kts | 70° |
| 2026-04-24 12:33 | 22.30123 | 113.91352 | 41 ft | 159 kts | 71° |
| 2026-04-24 12:33 | 22.30520 | 113.92630 | 260 ft | 188 kts | 70° |
| 2026-04-24 12:33 | 22.30915 | 113.93961 | 1139 ft | 181 kts | 71° |
| 2026-04-24 12:33 | 22.31296 | 113.95235 | 1985 ft | 176 kts | 72° |
| 2026-04-24 12:34 | 22.31663 | 113.96499 | 2691 ft | 179 kts | 74° |
| 2026-04-24 12:34 | 22.32062 | 113.97886 | 3039 ft | 203 kts | 72° |
| 2026-04-24 12:34 | 22.32576 | 113.99424 | 3315 ft | 231 kts | 70° |
| 2026-04-24 12:34 | 22.33183 | 114.01128 | 3718 ft | 253 kts | 70° |
| 2026-04-24 12:35 | 22.33859 | 114.02968 | 4212 ft | 272 kts | 72° |
| 2026-04-24 12:35 | 22.34065 | 114.05011 | 4771 ft | 278 kts | 103° |
| 2026-04-24 12:35 | 22.33250 | 114.06868 | 4994 ft | 274 kts | 134° |
| 2026-04-24 12:35 | 22.31793 | 114.08123 | 5026 ft | 274 kts | 156° |
| 2026-04-24 12:36 | 22.29964 | 114.08784 | 5490 ft | 280 kts | 175° |
| 2026-04-24 12:36 | 22.28010 | 114.08849 | 6631 ft | 272 kts | 185° |
| 2026-04-24 12:36 | 22.26117 | 114.08773 | 7572 ft | 274 kts | 186° |
| 2026-04-24 12:36 | 22.24170 | 114.08703 | 8344 ft | 282 kts | 185° |
| 2026-04-24 12:37 | 22.22185 | 114.08657 | 9200 ft | 288 kts | 184° |
| 2026-04-24 12:37 | 22.20307 | 114.08629 | 10010 ft | 292 kts | 184° |
| 2026-04-24 12:37 | 22.18243 | 114.08743 | 10647 ft | 306 kts | 171° |
| 2026-04-24 12:37 | 22.16215 | 114.09668 | 11053 ft | 331 kts | 147° |
| 2026-04-24 12:38 | 22.14589 | 114.11477 | 11436 ft | 354 kts | 123° |
| 2026-04-24 12:38 | 22.13413 | 114.13891 | 11874 ft | 372 kts | 117° |
| 2026-04-24 12:38 | 22.12264 | 114.16466 | 12255 ft | 390 kts | 117° |
| 2026-04-24 12:39 | 22.08443 | 114.24435 | 14189 ft | 412 kts | 125° |
| 2026-04-24 12:39 | 22.06637 | 114.26848 | 14848 ft | 415 kts | 136° |
| 2026-04-24 12:39 | 22.04448 | 114.28891 | 15485 ft | 418 kts | 146° |
| 2026-04-24 12:40 | 22.02086 | 114.30744 | 16133 ft | 422 kts | 148° |
| 2026-04-24 12:40 | 21.99686 | 114.32577 | 16767 ft | 428 kts | 148° |
| 2026-04-24 12:40 | 21.97255 | 114.34453 | 17398 ft | 433 kts | 148° |
| 2026-04-24 12:40 | 21.94800 | 114.36371 | 18029 ft | 439 kts | 148° |
| 2026-04-24 12:41 | 21.92320 | 114.38319 | 18595 ft | 444 kts | 148° |
| 2026-04-24 12:41 | 21.89815 | 114.40286 | 19142 ft | 445 kts | 147° |
| 2026-04-24 12:41 | 21.87352 | 114.42308 | 19787 ft | 447 kts | 141° |
| 2026-04-24 12:41 | 21.85275 | 114.44824 | 20328 ft | 453 kts | 127° |
| 2026-04-24 12:42 | 21.83800 | 114.47838 | 20814 ft | 458 kts | 112° |
| 2026-04-24 12:42 | 21.82887 | 114.51072 | 21403 ft | 450 kts | 106° |
| 2026-04-24 12:42 | 21.82081 | 114.54369 | 21593 ft | 459 kts | 106° |
| 2026-04-24 12:42 | 21.81263 | 114.57718 | 21894 ft | 464 kts | 107° |
| 2026-04-24 12:43 | 21.80423 | 114.61083 | 22297 ft | 466 kts | 107° |
| 2026-04-24 12:43 | 21.79567 | 114.64455 | 22660 ft | 467 kts | 107° |
| 2026-04-24 12:43 | 21.78698 | 114.67836 | 23078 ft | 469 kts | 107° |
| 2026-04-24 12:43 | 21.77820 | 114.71227 | 23512 ft | 472 kts | 108° |
| 2026-04-24 12:44 | 21.76934 | 114.74643 | 23901 ft | 475 kts | 108° |
| 2026-04-24 12:44 | 21.76040 | 114.78080 | 24303 ft | 478 kts | 108° |
| 2026-04-24 12:44 | 21.75214 | 114.81516 | 24691 ft | 482 kts | 104° |
| 2026-04-24 12:44 | 21.74629 | 114.85091 | 25082 ft | 487 kts | 99° |
| 2026-04-24 12:45 | 21.74335 | 114.88736 | 25471 ft | 492 kts | 94° |
| 2026-04-24 12:45 | 21.74281 | 114.92442 | 25864 ft | 496 kts | 91° |
| 2026-04-24 12:45 | 21.74294 | 114.96176 | 26239 ft | 500 kts | 91° |
| 2026-04-24 12:45 | 21.74320 | 114.99934 | 26609 ft | 503 kts | 91° |
| 2026-04-24 12:46 | 21.74339 | 115.03699 | 26961 ft | 506 kts | 91° |
| 2026-04-24 12:46 | 21.74348 | 115.07454 | 27316 ft | 509 kts | 91° |
| 2026-04-24 12:46 | 21.74350 | 115.11298 | 27698 ft | 512 kts | 91° |
| 2026-04-24 12:46 | 21.74348 | 115.15153 | 28088 ft | 516 kts | 91° |
| 2026-04-24 12:47 | 21.74343 | 115.19020 | 28513 ft | 517 kts | 91° |
| 2026-04-24 12:47 | 21.74338 | 115.22887 | 29088 ft | 516 kts | 91° |
| 2026-04-24 12:47 | 21.74330 | 115.26750 | 29685 ft | 514 kts | 91° |
| 2026-04-24 12:47 | 21.74321 | 115.30595 | 30216 ft | 513 kts | 91° |
| 2026-04-24 12:48 | 21.74312 | 115.34440 | 30636 ft | 514 kts | 91° |
| 2026-04-24 12:48 | 21.74302 | 115.38311 | 30945 ft | 518 kts | 92° |
| 2026-04-24 12:48 | 21.74291 | 115.42166 | 31240 ft | 522 kts | 92° |
| 2026-04-24 12:48 | 21.74280 | 115.46085 | 31605 ft | 524 kts | 91° |
| 2026-04-24 12:49 | 21.74268 | 115.50010 | 32001 ft | 525 kts | 91° |
| 2026-04-24 12:49 | 21.74256 | 115.53949 | 32411 ft | 527 kts | 92° |
| 2026-04-24 12:49 | 21.74241 | 115.57900 | 32793 ft | 528 kts | 92° |
| 2026-04-24 12:49 | 21.74225 | 115.61867 | 33182 ft | 530 kts | 92° |
| 2026-04-24 12:50 | 21.74209 | 115.65842 | 33550 ft | 532 kts | 92° |
| 2026-04-24 12:50 | 21.74192 | 115.69835 | 33911 ft | 534 kts | 92° |
| 2026-04-24 12:50 | 21.74174 | 115.73847 | 34244 ft | 536 kts | 92° |
| 2026-04-24 12:50 | 21.74158 | 115.77797 | 34665 ft | 535 kts | 92° |
| 2026-04-24 12:51 | 21.74142 | 115.81798 | 35191 ft | 531 kts | 92° |
| 2026-04-24 12:51 | 21.74125 | 115.85757 | 35712 ft | 528 kts | 92° |
| 2026-04-24 12:51 | 21.74106 | 115.89708 | 36156 ft | 526 kts | 92° |
| 2026-04-24 12:51 | 21.74085 | 115.93648 | 36542 ft | 527 kts | 93° |
| 2026-04-24 12:52 | 21.74061 | 115.97595 | 36898 ft | 527 kts | 93° |
| 2026-04-24 12:52 | 21.74036 | 116.01542 | 37005 ft | 528 kts | 93° |
| 2026-04-24 12:52 | 21.74011 | 116.05500 | 37012 ft | 528 kts | 93° |
| 2026-04-24 12:53 | 21.73958 | 116.13378 | 37016 ft | 528 kts | 93° |
| 2026-04-24 12:53 | 21.73904 | 116.21278 | 37008 ft | 528 kts | 93° |
| 2026-04-24 12:54 | 21.73845 | 116.29187 | 37009 ft | 528 kts | 93° |
| 2026-04-24 12:54 | 21.73783 | 116.37107 | 37013 ft | 528 kts | 93° |
| 2026-04-24 12:55 | 21.73719 | 116.44961 | 37017 ft | 528 kts | 93° |
| 2026-04-24 12:55 | 21.73650 | 116.52875 | 37017 ft | 528 kts | 93° |
| 2026-04-24 12:56 | 21.73577 | 116.60788 | 37011 ft | 527 kts | 93° |
| 2026-04-24 12:56 | 21.73526 | 116.68680 | 37016 ft | 527 kts | 91° |
| 2026-04-24 12:57 | 21.74098 | 116.76507 | 37021 ft | 529 kts | 83° |
| 2026-04-24 12:57 | 21.75651 | 116.84297 | 37025 ft | 534 kts | 75° |
| 2026-04-24 12:58 | 21.78114 | 116.91840 | 37020 ft | 534 kts | 68° |
| 2026-04-24 12:58 | 21.80862 | 116.99265 | 37020 ft | 533 kts | 68° |
| 2026-04-24 12:59 | 21.83569 | 117.06647 | 37015 ft | 533 kts | 69° |
| 2026-04-24 12:59 | 21.86265 | 117.14091 | 37026 ft | 533 kts | 69° |
| 2026-04-24 13:00 | 21.88947 | 117.21525 | 37021 ft | 530 kts | 69° |
| 2026-04-24 13:00 | 21.91608 | 117.28925 | 37028 ft | 528 kts | 69° |
| 2026-04-24 13:01 | 21.94242 | 117.36258 | 37047 ft | 530 kts | 69° |
| 2026-04-24 13:01 | 21.96916 | 117.43713 | 37030 ft | 534 kts | 69° |
| 2026-04-24 13:02 | 21.99908 | 117.51044 | 37027 ft | 532 kts | 63° |
| 2026-04-24 13:02 | 22.03592 | 117.57936 | 37030 ft | 530 kts | 58° |
| 2026-04-24 13:03 | 22.07477 | 117.64696 | 37030 ft | 530 kts | 57° |
| 2026-04-24 13:03 | 22.11323 | 117.71425 | 37033 ft | 530 kts | 58° |
| 2026-04-24 13:04 | 22.15172 | 117.78210 | 37052 ft | 530 kts | 58° |
| 2026-04-24 13:04 | 22.19034 | 117.85037 | 37034 ft | 534 kts | 57° |
| 2026-04-24 13:05 | 22.22868 | 117.91922 | 37030 ft | 534 kts | 61° |
| 2026-04-24 13:05 | 22.25604 | 117.99313 | 37034 ft | 533 kts | 76° |
| 2026-04-24 13:06 | 22.26670 | 118.07197 | 37030 ft | 529 kts | 92° |
| 2026-04-24 13:06 | 22.26149 | 118.15044 | 37038 ft | 521 kts | 101° |
| 2026-04-24 13:07 | 22.25167 | 118.22797 | 37033 ft | 521 kts | 102° |
| 2026-04-24 13:07 | 22.24683 | 118.26683 | 36725 ft | 523 kts | 101° |
| 2026-04-24 13:07 | 22.24218 | 118.30533 | 36164 ft | 524 kts | 101° |
| 2026-04-24 13:07 | 22.23756 | 118.34443 | 35541 ft | 525 kts | 101° |
| 2026-04-24 13:08 | 22.23300 | 118.38357 | 34915 ft | 525 kts | 101° |
| 2026-04-24 13:08 | 22.22845 | 118.42276 | 34315 ft | 525 kts | 100° |
| 2026-04-24 13:08 | 22.22391 | 118.46192 | 33649 ft | 526 kts | 100° |
| 2026-04-24 13:09 | 22.21476 | 118.54045 | 32327 ft | 526 kts | 100° |
| 2026-04-24 13:09 | 22.21021 | 118.57910 | 31683 ft | 526 kts | 100° |
| 2026-04-24 13:09 | 22.20557 | 118.61841 | 31016 ft | 527 kts | 100° |
| 2026-04-24 13:09 | 22.20092 | 118.65778 | 30347 ft | 529 kts | 100° |
| 2026-04-24 13:10 | 22.19623 | 118.69726 | 29595 ft | 529 kts | 99° |
| 2026-04-24 13:10 | 22.19157 | 118.73665 | 28876 ft | 528 kts | 99° |
| 2026-04-24 13:10 | 22.18694 | 118.77596 | 28160 ft | 527 kts | 99° |
| 2026-04-24 13:10 | 22.18230 | 118.81520 | 27465 ft | 525 kts | 99° |
| 2026-04-24 13:11 | 22.17769 | 118.85414 | 26992 ft | 519 kts | 99° |
| 2026-04-24 13:11 | 22.17314 | 118.89252 | 26537 ft | 512 kts | 99° |
| 2026-04-24 13:11 | 22.16868 | 118.92995 | 26029 ft | 508 kts | 99° |
| 2026-04-24 13:11 | 22.16417 | 118.96762 | 25497 ft | 504 kts | 99° |
| 2026-04-24 13:12 | 22.15966 | 119.00507 | 24950 ft | 501 kts | 99° |
| 2026-04-24 13:12 | 22.15514 | 119.04233 | 24353 ft | 499 kts | 99° |
| 2026-04-24 13:12 | 22.15062 | 119.07944 | 23758 ft | 498 kts | 99° |
| 2026-04-24 13:12 | 22.14612 | 119.11645 | 23048 ft | 496 kts | 99° |
| 2026-04-24 13:13 | 22.14166 | 119.15329 | 22380 ft | 493 kts | 100° |
| 2026-04-24 13:13 | 22.13725 | 119.18984 | 21744 ft | 489 kts | 100° |
| 2026-04-24 13:13 | 22.13285 | 119.22611 | 21128 ft | 485 kts | 100° |
| 2026-04-24 13:13 | 22.12855 | 119.26154 | 20601 ft | 479 kts | 100° |
| 2026-04-24 13:14 | 22.12425 | 119.29690 | 20127 ft | 472 kts | 100° |
| 2026-04-24 13:14 | 22.11999 | 119.33178 | 19668 ft | 465 kts | 101° |
| 2026-04-24 13:14 | 22.11579 | 119.36619 | 19210 ft | 459 kts | 101° |
| 2026-04-24 13:14 | 22.11163 | 119.40009 | 18762 ft | 452 kts | 101° |
| 2026-04-24 13:15 | 22.10753 | 119.43357 | 18320 ft | 447 kts | 101° |
| 2026-04-24 13:15 | 22.10346 | 119.46661 | 17817 ft | 441 kts | 101° |
| 2026-04-24 13:15 | 22.09947 | 119.49886 | 17358 ft | 436 kts | 101° |
| 2026-04-24 13:15 | 22.09549 | 119.53108 | 16919 ft | 430 kts | 101° |
| 2026-04-24 13:16 | 22.09155 | 119.56281 | 16479 ft | 424 kts | 101° |
| 2026-04-24 13:16 | 22.08766 | 119.59424 | 16062 ft | 419 kts | 101° |
| 2026-04-24 13:16 | 22.08382 | 119.62525 | 15727 ft | 417 kts | 101° |
| 2026-04-24 13:16 | 22.07997 | 119.65628 | 15429 ft | 417 kts | 101° |
| 2026-04-24 13:17 | 22.07611 | 119.68731 | 15133 ft | 415 kts | 101° |
| 2026-04-24 13:17 | 22.07224 | 119.71817 | 15000 ft | 415 kts | 101° |
| 2026-04-24 13:17 | 22.06836 | 119.74908 | 14715 ft | 415 kts | 101° |
| 2026-04-24 13:17 | 22.06450 | 119.77984 | 14384 ft | 411 kts | 101° |
| 2026-04-24 13:18 | 22.06067 | 119.81038 | 14158 ft | 410 kts | 101° |
| 2026-04-24 13:18 | 22.05683 | 119.84085 | 13929 ft | 409 kts | 100° |
| 2026-04-24 13:18 | 22.05300 | 119.87126 | 13682 ft | 407 kts | 100° |
| 2026-04-24 13:18 | 22.04936 | 119.90108 | 13423 ft | 406 kts | 98° |
| 2026-04-24 13:19 | 22.05095 | 119.93139 | 13131 ft | 408 kts | 78° |
| 2026-04-24 13:19 | 22.06215 | 119.95949 | 12880 ft | 408 kts | 56° |
| 2026-04-24 13:19 | 22.08135 | 119.98170 | 12623 ft | 405 kts | 36° |
| 2026-04-24 13:19 | 22.10605 | 119.99561 | 12375 ft | 399 kts | 15° |
| 2026-04-24 13:20 | 22.13303 | 120.00078 | 12135 ft | 392 kts | 0° |
| 2026-04-24 13:20 | 22.16022 | 120.00120 | 11907 ft | 389 kts | 356° |
| 2026-04-24 13:20 | 22.18725 | 120.00076 | 11615 ft | 387 kts | 356° |
| 2026-04-24 13:20 | 22.21403 | 120.00016 | 11242 ft | 383 kts | 356° |
| 2026-04-24 13:21 | 22.24065 | 119.99949 | 10813 ft | 379 kts | 356° |
| 2026-04-24 13:21 | 22.26642 | 120.00189 | 10361 ft | 378 kts | 10° |
| 2026-04-24 13:21 | 22.29174 | 120.00888 | 9962 ft | 373 kts | 13° |
| 2026-04-24 13:21 | 22.31666 | 120.01608 | 9508 ft | 369 kts | 13° |
| 2026-04-24 13:22 | 22.34113 | 120.02311 | 8947 ft | 357 kts | 13° |
| 2026-04-24 13:22 | 22.36467 | 120.02984 | 8496 ft | 343 kts | 13° |
| 2026-04-24 13:22 | 22.38730 | 120.03629 | 7945 ft | 329 kts | 13° |
| 2026-04-24 13:22 | 22.40902 | 120.04248 | 7440 ft | 317 kts | 13° |
| 2026-04-24 13:23 | 22.42992 | 120.04842 | 6929 ft | 306 kts | 13° |
| 2026-04-24 13:23 | 22.45010 | 120.05416 | 6441 ft | 294 kts | 13° |
| 2026-04-24 13:23 | 22.46957 | 120.05971 | 5895 ft | 285 kts | 13° |
| 2026-04-24 13:23 | 22.48821 | 120.06498 | 5377 ft | 277 kts | 13° |
| 2026-04-24 13:24 | 22.50674 | 120.07023 | 4865 ft | 274 kts | 13° |
| 2026-04-24 13:24 | 22.52507 | 120.07542 | 4355 ft | 269 kts | 14° |
| 2026-04-24 13:24 | 22.54295 | 120.08056 | 3840 ft | 263 kts | 14° |
| 2026-04-24 13:24 | 22.56045 | 120.08577 | 3325 ft | 258 kts | 22° |
| 2026-04-24 13:25 | 22.57445 | 120.09691 | 3020 ft | 245 kts | 54° |
| 2026-04-24 13:25 | 22.58129 | 120.11275 | 3059 ft | 222 kts | 75° |
| 2026-04-24 13:25 | 22.58345 | 120.12883 | 3095 ft | 214 kts | 87° |
| 2026-04-24 13:25 | 22.58357 | 120.14496 | 3056 ft | 213 kts | 91° |
| 2026-04-24 13:26 | 22.58309 | 120.16079 | 3026 ft | 213 kts | 92° |
| 2026-04-24 13:26 | 22.58248 | 120.17686 | 2813 ft | 212 kts | 92° |
| 2026-04-24 13:26 | 22.58192 | 120.19270 | 2537 ft | 207 kts | 92° |
| 2026-04-24 13:26 | 22.58143 | 120.20789 | 2263 ft | 195 kts | 91° |
| 2026-04-24 13:27 | 22.58098 | 120.22225 | 2019 ft | 186 kts | 90° |
| 2026-04-24 13:27 | 22.58058 | 120.23565 | 1760 ft | 170 kts | 90° |
| 2026-04-24 13:27 | 22.58021 | 120.24788 | 1548 ft | 157 kts | 90° |
| 2026-04-24 13:27 | 22.57987 | 120.25955 | 1366 ft | 156 kts | 90° |
| 2026-04-24 13:28 | 22.57950 | 120.27125 | 1180 ft | 155 kts | 89° |
| 2026-04-24 13:28 | 22.57914 | 120.28292 | 987 ft | 155 kts | 90° |
| 2026-04-24 13:28 | 22.57877 | 120.29455 | 807 ft | 154 kts | 89° |
| 2026-04-24 13:28 | 22.57841 | 120.30612 | 607 ft | 153 kts | 89° |
| 2026-04-24 13:29 | 22.57799 | 120.31766 | 433 ft | 153 kts | 90° |
| 2026-04-24 13:29 | 22.57767 | 120.32920 | 218 ft | 153 kts | 88° |
| 2026-04-24 13:29 | 22.57738 | 120.34071 | 50 ft | 151 kts | 90° |
| 2026-04-24 13:29 | 22.57707 | 120.35075 | 46 ft | 107 kts | 92° |
| 2026-04-24 13:30 | 22.57688 | 120.35684 | 46 ft | 60 kts | 92° |
| 2026-04-24 13:30 | 22.57677 | 120.35875 | 48 ft | 10 kts | 111° |
| 2026-04-24 13:30 | 22.57619 | 120.35914 | 47 ft | 11 kts | 174° |
| 2026-04-24 13:30 | 22.57551 | 120.35908 | 47 ft | 11 kts | 202° |
| 2026-04-24 13:31 | 22.57515 | 120.35835 | 46 ft | 13 kts | 265° |
| 2026-04-24 13:31 | 22.57517 | 120.35720 | 46 ft | 17 kts | 272° |
| 2026-04-24 13:31 | 22.57521 | 120.35578 | 46 ft | 20 kts | 272° |
| 2026-04-24 13:31 | 22.57527 | 120.35415 | 46 ft | 23 kts | 272° |
| 2026-04-24 13:32 | 22.57533 | 120.35230 | 46 ft | 26 kts | 272° |
| 2026-04-24 13:32 | 22.57538 | 120.35057 | 46 ft | 24 kts | 271° |
| 2026-04-24 13:32 | 22.57542 | 120.34901 | 46 ft | 19 kts | 271° |
| 2026-04-24 13:32 | 22.57545 | 120.34774 | 47 ft | 17 kts | 271° |
| 2026-04-24 13:33 | 22.57549 | 120.34652 | 47 ft | 15 kts | 271° |
| 2026-04-24 13:33 | 22.57551 | 120.34588 | 47 ft | 0 kts | 272° |
| 2026-04-24 13:33 | 22.57551 | 120.34580 | 47 ft | 3 kts | 272° |
| 2026-04-24 13:33 | 22.57552 | 120.34544 | 47 ft | 7 kts | 272° |
| 2026-04-24 13:34 | 22.57554 | 120.34476 | 47 ft | 11 kts | 272° |
| 2026-04-24 13:34 | 22.57557 | 120.34375 | 47 ft | 16 kts | 272° |
| 2026-04-24 13:34 | 22.57562 | 120.34254 | 47 ft | 4 kts | 272° |
| 2026-04-24 13:34 | 22.57563 | 120.34225 | 47 ft | 6 kts | 272° |
| 2026-04-24 13:35 | 22.57564 | 120.34191 | 47 ft | 5 kts | 272° |
| 2026-04-24 13:35 | 22.57547 | 120.34144 | 46 ft | 8 kts | 229° |
| 2026-04-24 13:35 | 22.57489 | 120.34123 | 46 ft | 8 kts | 184° |
| 2026-04-24 13:35 | 22.57434 | 120.34109 | 47 ft | 8 kts | 217° |
| 2026-04-24 13:36 | 22.57396 | 120.34069 | 47 ft | 5 kts | 213° |
| 2026-04-24 13:36 | 22.57357 | 120.34049 | 47 ft | 7 kts | 202° |
| 2026-04-24 13:36 | 22.57336 | 120.34049 | 45 ft | 3 kts | 154° |
| 2026-04-24 13:36 | 22.57328 | 120.34063 | 47 ft | 3 kts | 103° |
| 2026-04-24 13:37 | 22.57324 | 120.34090 | 47 ft | 3 kts | 95° |
| 2026-04-24 13:37 | 22.57323 | 120.34106 | 47 ft | 0 kts | 94° |